sensor_id;sensor_type;location;lat;lon;timestamp;temperature;humidity
9125;DHT22;4597;48.730;9.114;2023-05-10T00:01:30;14.10;99.90
9125;DHT22;4597;48.730;9.114;2023-05-10T00:03:56;14.00;99.90
9125;DHT22;4597;48.730;9.114;2023-05-10T00:06:21;14.00;99.90
9125;DHT22;4597;48.730;9.114;2023-05-10T00:08:47;13.80;99.90
9125;DHT22;4597;48.730;9.114;2023-05-10T00:11:12;13.90;99.90
9125;DHT22;4597;48.730;9.114;2023-05-10T00:13:38;13.90;99.90
9125;DHT22;4597;48.730;9.114;2023-05-10T00:16:03;13.80;99.90
9125;DHT22;4597;48.730;9.114;2023-05-10T00:18:29;13.80;99.90
9125;DHT22;4597;48.730;9.114;2023-05-10T00:20:55;13.80;99.90
9125;DHT22;4597;48.730;9.114;2023-05-10T00:23:20;13.80;99.90
9125;DHT22;4597;48.730;9.114;2023-05-10T00:25:46;13.80;99.90
9125;DHT22;4597;48.730;9.114;2023-05-10T00:28:11;13.70;99.90
9125;DHT22;4597;48.730;9.114;2023-05-10T00:30:37;13.60;99.90
9125;DHT22;4597;48.730;9.114;2023-05-10T00:33:02;13.60;99.90
9125;DHT22;4597;48.730;9.114;2023-05-10T00:35:28;13.60;99.90
9125;DHT22;4597;48.730;9.114;2023-05-10T00:37:53;13.60;99.90
9125;DHT22;4597;48.730;9.114;2023-05-10T00:40:19;13.50;99.90
9125;DHT22;4597;48.730;9.114;2023-05-10T00:42:44;13.50;99.90
9125;DHT22;4597;48.730;9.114;2023-05-10T00:45:10;13.50;99.90
9125;DHT22;4597;48.730;9.114;2023-05-10T00:47:36;13.50;99.90
9125;DHT22;4597;48.730;9.114;2023-05-10T00:50:01;13.50;99.90
9125;DHT22;4597;48.730;9.114;2023-05-10T00:52:28;13.40;99.90
9125;DHT22;4597;48.730;9.114;2023-05-10T00:54:54;13.30;99.90
9125;DHT22;4597;48.730;9.114;2023-05-10T00:57:20;13.40;99.90
9125;DHT22;4597;48.730;9.114;2023-05-10T00:59:46;13.40;99.90
9125;DHT22;4597;48.730;9.114;2023-05-10T01:02:12;13.40;99.90
9125;DHT22;4597;48.730;9.114;2023-05-10T01:04:38;13.40;99.90
9125;DHT22;4597;48.730;9.114;2023-05-10T01:07:05;13.40;99.90
9125;DHT22;4597;48.730;9.114;2023-05-10T01:09:31;13.40;99.90
9125;DHT22;4597;48.730;9.114;2023-05-10T01:11:57;13.40;99.90
9125;DHT22;4597;48.730;9.114;2023-05-10T01:14:23;13.30;99.90
9125;DHT22;4597;48.730;9.114;2023-05-10T01:16:50;13.40;99.90
9125;DHT22;4597;48.730;9.114;2023-05-10T01:19:23;13.40;99.90
9125;DHT22;4597;48.730;9.114;2023-05-10T01:22:12;13.40;99.90
9125;DHT22;4597;48.730;9.114;2023-05-10T01:33:30;13.40;99.90
9125;DHT22;4597;48.730;9.114;2023-05-10T01:36:13;13.40;99.90
9125;DHT22;4597;48.730;9.114;2023-05-10T01:38:53;13.50;99.90
9125;DHT22;4597;48.730;9.114;2023-05-10T01:41:56;13.50;99.90
9125;DHT22;4597;48.730;9.114;2023-05-10T01:44:53;13.50;99.90
9125;DHT22;4597;48.730;9.114;2023-05-10T01:47:31;13.50;99.90
9125;DHT22;4597;48.730;9.114;2023-05-10T01:50:02;13.50;99.90
9125;DHT22;4597;48.730;9.114;2023-05-10T01:52:38;13.40;99.90
9125;DHT22;4597;48.730;9.114;2023-05-10T01:55:08;13.40;99.90
9125;DHT22;4597;48.730;9.114;2023-05-10T01:57:35;13.40;99.90
9125;DHT22;4597;48.730;9.114;2023-05-10T02:00:03;13.30;99.90
9125;DHT22;4597;48.730;9.114;2023-05-10T02:02:35;13.40;99.90
9125;DHT22;4597;48.730;9.114;2023-05-10T02:05:03;13.40;99.90
9125;DHT22;4597;48.730;9.114;2023-05-10T02:07:32;13.40;99.90
9125;DHT22;4597;48.730;9.114;2023-05-10T02:09:58;13.40;99.90
9125;DHT22;4597;48.730;9.114;2023-05-10T02:12:25;13.30;99.90
9125;DHT22;4597;48.730;9.114;2023-05-10T02:14:51;13.30;99.90
9125;DHT22;4597;48.730;9.114;2023-05-10T02:17:18;13.30;99.90
9125;DHT22;4597;48.730;9.114;2023-05-10T02:19:44;13.30;99.90
9125;DHT22;4597;48.730;9.114;2023-05-10T02:22:11;13.30;99.90
9125;DHT22;4597;48.730;9.114;2023-05-10T02:24:38;13.30;99.90
9125;DHT22;4597;48.730;9.114;2023-05-10T02:27:05;13.30;99.90
9125;DHT22;4597;48.730;9.114;2023-05-10T02:29:32;13.30;99.90
9125;DHT22;4597;48.730;9.114;2023-05-10T02:31:58;13.30;99.90
9125;DHT22;4597;48.730;9.114;2023-05-10T02:34:26;13.30;99.90
9125;DHT22;4597;48.730;9.114;2023-05-10T02:36:53;13.30;99.90
9125;DHT22;4597;48.730;9.114;2023-05-10T02:39:21;13.30;99.90
9125;DHT22;4597;48.730;9.114;2023-05-10T02:41:48;13.30;99.90
9125;DHT22;4597;48.730;9.114;2023-05-10T02:44:18;13.30;99.90
9125;DHT22;4597;48.730;9.114;2023-05-10T02:46:45;13.30;99.90
9125;DHT22;4597;48.730;9.114;2023-05-10T02:49:10;13.30;99.90
9125;DHT22;4597;48.730;9.114;2023-05-10T02:51:41;13.30;99.90
9125;DHT22;4597;48.730;9.114;2023-05-10T02:54:11;13.30;99.90
9125;DHT22;4597;48.730;9.114;2023-05-10T02:56:42;13.40;99.90
9125;DHT22;4597;48.730;9.114;2023-05-10T02:59:08;13.40;99.90
9125;DHT22;4597;48.730;9.114;2023-05-10T03:01:33;13.50;99.90
9125;DHT22;4597;48.730;9.114;2023-05-10T03:04:00;13.50;99.90
9125;DHT22;4597;48.730;9.114;2023-05-10T03:06:25;13.50;99.90
9125;DHT22;4597;48.730;9.114;2023-05-10T03:08:51;13.60;99.90
9125;DHT22;4597;48.730;9.114;2023-05-10T03:11:37;13.60;99.90
9125;DHT22;4597;48.730;9.114;2023-05-10T03:16:45;13.50;99.90
9125;DHT22;4597;48.730;9.114;2023-05-10T03:19:26;13.50;99.90
9125;DHT22;4597;48.730;9.114;2023-05-10T03:21:53;13.50;99.90
9125;DHT22;4597;48.730;9.114;2023-05-10T03:24:22;13.50;99.90
9125;DHT22;4597;48.730;9.114;2023-05-10T03:26:49;13.50;99.90
9125;DHT22;4597;48.730;9.114;2023-05-10T03:29:16;13.40;99.90
9125;DHT22;4597;48.730;9.114;2023-05-10T03:31:42;13.40;99.90
9125;DHT22;4597;48.730;9.114;2023-05-10T03:34:08;13.40;99.90
9125;DHT22;4597;48.730;9.114;2023-05-10T03:36:33;13.40;99.90
9125;DHT22;4597;48.730;9.114;2023-05-10T03:38:59;13.50;99.90
9125;DHT22;4597;48.730;9.114;2023-05-10T03:41:24;13.40;99.90
9125;DHT22;4597;48.730;9.114;2023-05-10T03:43:51;13.50;99.90
9125;DHT22;4597;48.730;9.114;2023-05-10T03:46:16;13.50;99.90
9125;DHT22;4597;48.730;9.114;2023-05-10T03:48:42;13.50;99.90
9125;DHT22;4597;48.730;9.114;2023-05-10T03:51:07;13.40;99.90
9125;DHT22;4597;48.730;9.114;2023-05-10T03:53:33;13.50;99.90
9125;DHT22;4597;48.730;9.114;2023-05-10T03:55:58;13.50;99.90
9125;DHT22;4597;48.730;9.114;2023-05-10T03:58:24;13.40;99.90
9125;DHT22;4597;48.730;9.114;2023-05-10T04:00:51;13.50;99.90
9125;DHT22;4597;48.730;9.114;2023-05-10T04:03:16;13.40;99.90
9125;DHT22;4597;48.730;9.114;2023-05-10T04:05:42;13.40;99.90
9125;DHT22;4597;48.730;9.114;2023-05-10T04:08:08;13.30;99.90
9125;DHT22;4597;48.730;9.114;2023-05-10T04:10:33;13.40;99.90
9125;DHT22;4597;48.730;9.114;2023-05-10T04:13:00;13.30;99.90
9125;DHT22;4597;48.730;9.114;2023-05-10T04:15:25;13.20;99.90
9125;DHT22;4597;48.730;9.114;2023-05-10T04:17:51;13.30;99.90
9125;DHT22;4597;48.730;9.114;2023-05-10T04:20:17;13.30;99.90
9125;DHT22;4597;48.730;9.114;2023-05-10T04:22:42;13.30;99.90
9125;DHT22;4597;48.730;9.114;2023-05-10T04:25:08;13.30;99.90
9125;DHT22;4597;48.730;9.114;2023-05-10T04:27:34;13.20;99.90
9125;DHT22;4597;48.730;9.114;2023-05-10T04:29:59;13.20;99.90
9125;DHT22;4597;48.730;9.114;2023-05-10T04:32:25;13.20;99.90
9125;DHT22;4597;48.730;9.114;2023-05-10T04:34:50;13.20;99.90
9125;DHT22;4597;48.730;9.114;2023-05-10T04:37:16;13.30;99.90
9125;DHT22;4597;48.730;9.114;2023-05-10T04:39:42;13.30;99.90
9125;DHT22;4597;48.730;9.114;2023-05-10T04:42:08;13.30;99.90
9125;DHT22;4597;48.730;9.114;2023-05-10T04:44:33;13.40;99.90
9125;DHT22;4597;48.730;9.114;2023-05-10T04:46:59;13.40;99.90
9125;DHT22;4597;48.730;9.114;2023-05-10T04:49:24;13.40;99.90
9125;DHT22;4597;48.730;9.114;2023-05-10T04:51:50;13.50;99.90
9125;DHT22;4597;48.730;9.114;2023-05-10T04:54:15;13.50;99.90
9125;DHT22;4597;48.730;9.114;2023-05-10T04:56:41;13.50;99.90
9125;DHT22;4597;48.730;9.114;2023-05-10T04:59:07;13.60;99.90
9125;DHT22;4597;48.730;9.114;2023-05-10T05:01:32;13.60;99.90
9125;DHT22;4597;48.730;9.114;2023-05-10T05:03:58;13.60;99.90
9125;DHT22;4597;48.730;9.114;2023-05-10T05:06:24;13.60;99.90
9125;DHT22;4597;48.730;9.114;2023-05-10T05:08:50;13.70;99.90
9125;DHT22;4597;48.730;9.114;2023-05-10T05:11:16;13.70;99.90
9125;DHT22;4597;48.730;9.114;2023-05-10T05:13:42;13.70;99.90
9125;DHT22;4597;48.730;9.114;2023-05-10T05:16:07;13.70;99.90
9125;DHT22;4597;48.730;9.114;2023-05-10T05:18:33;13.70;99.90
9125;DHT22;4597;48.730;9.114;2023-05-10T05:20:58;13.70;99.90
9125;DHT22;4597;48.730;9.114;2023-05-10T05:23:24;13.70;99.90
9125;DHT22;4597;48.730;9.114;2023-05-10T05:25:51;13.70;99.90
9125;DHT22;4597;48.730;9.114;2023-05-10T05:28:17;13.80;99.90
9125;DHT22;4597;48.730;9.114;2023-05-10T05:30:43;13.80;99.90
9125;DHT22;4597;48.730;9.114;2023-05-10T05:33:08;13.90;99.90
9125;DHT22;4597;48.730;9.114;2023-05-10T05:35:34;13.90;99.90
9125;DHT22;4597;48.730;9.114;2023-05-10T05:37:59;13.90;99.90
9125;DHT22;4597;48.730;9.114;2023-05-10T05:40:25;13.90;99.90
9125;DHT22;4597;48.730;9.114;2023-05-10T05:42:51;13.90;99.90
9125;DHT22;4597;48.730;9.114;2023-05-10T05:45:16;14.00;99.90
9125;DHT22;4597;48.730;9.114;2023-05-10T05:47:42;14.00;99.90
9125;DHT22;4597;48.730;9.114;2023-05-10T05:50:07;14.00;99.90
9125;DHT22;4597;48.730;9.114;2023-05-10T05:52:33;14.00;99.90
9125;DHT22;4597;48.730;9.114;2023-05-10T05:54:59;14.10;99.90
9125;DHT22;4597;48.730;9.114;2023-05-10T05:57:24;14.10;99.90
9125;DHT22;4597;48.730;9.114;2023-05-10T05:59:51;14.10;99.90
9125;DHT22;4597;48.730;9.114;2023-05-10T06:02:17;14.10;99.90
9125;DHT22;4597;48.730;9.114;2023-05-10T06:04:43;14.10;99.90
9125;DHT22;4597;48.730;9.114;2023-05-10T06:07:08;14.20;99.90
9125;DHT22;4597;48.730;9.114;2023-05-10T06:09:34;14.20;99.90
9125;DHT22;4597;48.730;9.114;2023-05-10T06:11:59;14.10;99.90
9125;DHT22;4597;48.730;9.114;2023-05-10T06:14:25;14.20;99.90
9125;DHT22;4597;48.730;9.114;2023-05-10T06:16:50;14.30;99.90
9125;DHT22;4597;48.730;9.114;2023-05-10T06:19:16;14.50;99.90
9125;DHT22;4597;48.730;9.114;2023-05-10T06:21:41;14.40;99.90
9125;DHT22;4597;48.730;9.114;2023-05-10T06:24:07;14.50;99.90
9125;DHT22;4597;48.730;9.114;2023-05-10T06:26:33;14.50;99.90
9125;DHT22;4597;48.730;9.114;2023-05-10T06:28:59;14.50;99.90
9125;DHT22;4597;48.730;9.114;2023-05-10T06:31:24;14.60;99.90
9125;DHT22;4597;48.730;9.114;2023-05-10T06:33:50;14.60;99.90
9125;DHT22;4597;48.730;9.114;2023-05-10T06:36:16;14.60;99.90
9125;DHT22;4597;48.730;9.114;2023-05-10T06:38:41;14.70;99.90
9125;DHT22;4597;48.730;9.114;2023-05-10T06:41:07;14.80;99.90
9125;DHT22;4597;48.730;9.114;2023-05-10T06:43:32;14.90;99.90
9125;DHT22;4597;48.730;9.114;2023-05-10T06:45:58;15.00;99.90
9125;DHT22;4597;48.730;9.114;2023-05-10T06:48:23;15.10;99.90
9125;DHT22;4597;48.730;9.114;2023-05-10T06:50:49;15.20;99.90
9125;DHT22;4597;48.730;9.114;2023-05-10T06:53:14;15.10;99.90
9125;DHT22;4597;48.730;9.114;2023-05-10T06:55:40;15.10;99.90
9125;DHT22;4597;48.730;9.114;2023-05-10T06:58:06;15.10;99.90
9125;DHT22;4597;48.730;9.114;2023-05-10T07:00:32;15.10;99.90
9125;DHT22;4597;48.730;9.114;2023-05-10T07:02:57;15.10;99.90
9125;DHT22;4597;48.730;9.114;2023-05-10T07:05:23;15.20;99.90
9125;DHT22;4597;48.730;9.114;2023-05-10T07:07:49;15.20;99.90
9125;DHT22;4597;48.730;9.114;2023-05-10T07:10:14;15.10;99.90
9125;DHT22;4597;48.730;9.114;2023-05-10T07:12:40;15.10;99.90
9125;DHT22;4597;48.730;9.114;2023-05-10T07:15:06;15.20;99.90
9125;DHT22;4597;48.730;9.114;2023-05-10T07:17:31;15.20;99.90
9125;DHT22;4597;48.730;9.114;2023-05-10T07:19:58;15.20;99.90
9125;DHT22;4597;48.730;9.114;2023-05-10T07:22:24;15.30;99.90
9125;DHT22;4597;48.730;9.114;2023-05-10T07:24:50;15.30;99.90
9125;DHT22;4597;48.730;9.114;2023-05-10T07:27:15;15.20;99.90
9125;DHT22;4597;48.730;9.114;2023-05-10T07:29:41;15.20;99.90
9125;DHT22;4597;48.730;9.114;2023-05-10T07:32:06;15.10;99.90
9125;DHT22;4597;48.730;9.114;2023-05-10T07:34:32;15.20;99.90
9125;DHT22;4597;48.730;9.114;2023-05-10T07:37:01;15.20;99.90
9125;DHT22;4597;48.730;9.114;2023-05-10T07:39:27;15.30;99.90
9125;DHT22;4597;48.730;9.114;2023-05-10T07:41:53;15.40;99.90
9125;DHT22;4597;48.730;9.114;2023-05-10T07:44:19;15.40;99.90
9125;DHT22;4597;48.730;9.114;2023-05-10T07:46:46;15.30;99.90
9125;DHT22;4597;48.730;9.114;2023-05-10T07:49:11;15.20;99.90
9125;DHT22;4597;48.730;9.114;2023-05-10T07:51:37;15.30;99.90
9125;DHT22;4597;48.730;9.114;2023-05-10T07:54:02;15.40;99.90
9125;DHT22;4597;48.730;9.114;2023-05-10T07:56:30;15.40;99.90
9125;DHT22;4597;48.730;9.114;2023-05-10T07:58:57;15.50;99.90
9125;DHT22;4597;48.730;9.114;2023-05-10T08:01:24;15.50;99.90
9125;DHT22;4597;48.730;9.114;2023-05-10T08:03:49;15.60;99.90
9125;DHT22;4597;48.730;9.114;2023-05-10T08:06:17;15.60;99.90
9125;DHT22;4597;48.730;9.114;2023-05-10T08:08:43;15.50;99.90
9125;DHT22;4597;48.730;9.114;2023-05-10T08:11:10;15.60;99.90
9125;DHT22;4597;48.730;9.114;2023-05-10T08:13:36;15.60;99.90
9125;DHT22;4597;48.730;9.114;2023-05-10T08:16:01;15.60;99.90
9125;DHT22;4597;48.730;9.114;2023-05-10T08:18:27;15.70;99.90
9125;DHT22;4597;48.730;9.114;2023-05-10T08:20:53;15.70;99.90
9125;DHT22;4597;48.730;9.114;2023-05-10T08:23:18;15.80;99.90
9125;DHT22;4597;48.730;9.114;2023-05-10T08:25:44;16.00;99.90
9125;DHT22;4597;48.730;9.114;2023-05-10T08:28:09;16.00;99.90
9125;DHT22;4597;48.730;9.114;2023-05-10T08:30:35;16.10;99.90
9125;DHT22;4597;48.730;9.114;2023-05-10T08:33:00;16.20;99.90
9125;DHT22;4597;48.730;9.114;2023-05-10T08:35:26;16.20;99.90
9125;DHT22;4597;48.730;9.114;2023-05-10T08:37:51;16.20;99.90
9125;DHT22;4597;48.730;9.114;2023-05-10T08:40:19;16.20;99.90
9125;DHT22;4597;48.730;9.114;2023-05-10T08:45:47;15.80;99.90
9125;DHT22;4597;48.730;9.114;2023-05-10T08:48:14;15.50;99.90
9125;DHT22;4597;48.730;9.114;2023-05-10T08:50:41;15.40;99.90
9125;DHT22;4597;48.730;9.114;2023-05-10T08:53:12;15.30;99.90
9125;DHT22;4597;48.730;9.114;2023-05-10T08:55:38;15.40;99.90
9125;DHT22;4597;48.730;9.114;2023-05-10T08:58:06;15.60;99.90
9125;DHT22;4597;48.730;9.114;2023-05-10T09:00:31;15.70;99.90
9125;DHT22;4597;48.730;9.114;2023-05-10T09:03:00;15.80;99.90
9125;DHT22;4597;48.730;9.114;2023-05-10T09:05:27;16.00;99.90
9125;DHT22;4597;48.730;9.114;2023-05-10T09:07:52;16.10;99.90
9125;DHT22;4597;48.730;9.114;2023-05-10T09:10:19;16.20;99.90
9125;DHT22;4597;48.730;9.114;2023-05-10T09:12:45;16.10;99.90
9125;DHT22;4597;48.730;9.114;2023-05-10T09:15:11;16.30;99.90
9125;DHT22;4597;48.730;9.114;2023-05-10T09:17:38;16.30;99.90
9125;DHT22;4597;48.730;9.114;2023-05-10T09:20:05;16.30;99.90
9125;DHT22;4597;48.730;9.114;2023-05-10T09:22:31;16.40;99.90
9125;DHT22;4597;48.730;9.114;2023-05-10T09:25:11;16.60;99.90
9125;DHT22;4597;48.730;9.114;2023-05-10T09:27:37;16.60;99.90
9125;DHT22;4597;48.730;9.114;2023-05-10T09:30:04;16.60;99.90
9125;DHT22;4597;48.730;9.114;2023-05-10T09:32:37;16.60;99.90
9125;DHT22;4597;48.730;9.114;2023-05-10T09:35:14;16.70;99.90
9125;DHT22;4597;48.730;9.114;2023-05-10T09:37:41;16.80;99.90
9125;DHT22;4597;48.730;9.114;2023-05-10T09:40:10;16.80;99.90
9125;DHT22;4597;48.730;9.114;2023-05-10T09:42:36;16.70;99.90
9125;DHT22;4597;48.730;9.114;2023-05-10T09:45:03;16.90;99.90
9125;DHT22;4597;48.730;9.114;2023-05-10T09:47:31;17.00;99.90
9125;DHT22;4597;48.730;9.114;2023-05-10T09:49:57;16.90;99.90
9125;DHT22;4597;48.730;9.114;2023-05-10T09:52:28;16.90;99.90
9125;DHT22;4597;48.730;9.114;2023-05-10T09:54:54;16.80;99.90
9125;DHT22;4597;48.730;9.114;2023-05-10T09:57:21;16.90;99.90
9125;DHT22;4597;48.730;9.114;2023-05-10T09:59:47;16.90;99.90
9125;DHT22;4597;48.730;9.114;2023-05-10T10:02:13;17.00;99.90
9125;DHT22;4597;48.730;9.114;2023-05-10T10:04:42;17.20;99.90
9125;DHT22;4597;48.730;9.114;2023-05-10T10:07:08;17.10;99.90
9125;DHT22;4597;48.730;9.114;2023-05-10T10:09:34;17.20;99.90
9125;DHT22;4597;48.730;9.114;2023-05-10T10:12:03;17.00;99.90
9125;DHT22;4597;48.730;9.114;2023-05-10T10:14:30;17.10;99.90
9125;DHT22;4597;48.730;9.114;2023-05-10T10:16:56;17.20;99.90
9125;DHT22;4597;48.730;9.114;2023-05-10T10:19:21;17.50;99.90
9125;DHT22;4597;48.730;9.114;2023-05-10T10:21:50;17.70;99.90
9125;DHT22;4597;48.730;9.114;2023-05-10T10:24:16;17.70;99.90
9125;DHT22;4597;48.730;9.114;2023-05-10T10:26:42;17.90;99.90
9125;DHT22;4597;48.730;9.114;2023-05-10T10:32:09;17.70;99.90
9125;DHT22;4597;48.730;9.114;2023-05-10T10:34:39;17.30;99.90
9125;DHT22;4597;48.730;9.114;2023-05-10T10:37:05;16.80;99.90
9125;DHT22;4597;48.730;9.114;2023-05-10T10:39:31;16.40;99.90
9125;DHT22;4597;48.730;9.114;2023-05-10T10:41:58;16.30;99.90
9125;DHT22;4597;48.730;9.114;2023-05-10T10:44:24;16.20;99.90
9125;DHT22;4597;48.730;9.114;2023-05-10T10:52:38;16.40;99.90
9125;DHT22;4597;48.730;9.114;2023-05-10T10:55:10;16.60;99.90
9125;DHT22;4597;48.730;9.114;2023-05-10T11:00:21;16.80;99.90
9125;DHT22;4597;48.730;9.114;2023-05-10T11:07:57;17.00;99.90
9125;DHT22;4597;48.730;9.114;2023-05-10T11:10:24;17.30;99.90
9125;DHT22;4597;48.730;9.114;2023-05-10T11:13:07;17.30;99.90
9125;DHT22;4597;48.730;9.114;2023-05-10T11:15:35;17.50;99.90
9125;DHT22;4597;48.730;9.114;2023-05-10T11:18:20;17.80;99.90
9125;DHT22;4597;48.730;9.114;2023-05-10T11:20:55;17.60;99.90
9125;DHT22;4597;48.730;9.114;2023-05-10T11:23:21;17.60;99.90
9125;DHT22;4597;48.730;9.114;2023-05-10T11:25:48;17.70;99.90
9125;DHT22;4597;48.730;9.114;2023-05-10T11:28:14;17.80;99.90
9125;DHT22;4597;48.730;9.114;2023-05-10T11:30:43;17.70;99.90
9125;DHT22;4597;48.730;9.114;2023-05-10T11:33:14;17.60;99.90
9125;DHT22;4597;48.730;9.114;2023-05-10T11:35:40;17.60;99.90
9125;DHT22;4597;48.730;9.114;2023-05-10T11:38:10;17.60;99.90
9125;DHT22;4597;48.730;9.114;2023-05-10T11:40:36;17.60;99.90
9125;DHT22;4597;48.730;9.114;2023-05-10T11:43:02;17.70;99.90
9125;DHT22;4597;48.730;9.114;2023-05-10T11:45:29;17.70;99.90
9125;DHT22;4597;48.730;9.114;2023-05-10T11:47:57;17.90;99.90
9125;DHT22;4597;48.730;9.114;2023-05-10T11:50:24;17.70;99.90
9125;DHT22;4597;48.730;9.114;2023-05-10T11:52:56;17.50;99.90
9125;DHT22;4597;48.730;9.114;2023-05-10T11:55:22;17.50;99.90
9125;DHT22;4597;48.730;9.114;2023-05-10T11:57:52;17.50;99.90
9125;DHT22;4597;48.730;9.114;2023-05-10T12:00:18;17.40;99.90
9125;DHT22;4597;48.730;9.114;2023-05-10T12:02:43;17.30;99.90
9125;DHT22;4597;48.730;9.114;2023-05-10T12:05:09;17.20;99.90
9125;DHT22;4597;48.730;9.114;2023-05-10T12:07:35;17.30;99.90
9125;DHT22;4597;48.730;9.114;2023-05-10T12:12:41;17.40;99.90
9125;DHT22;4597;48.730;9.114;2023-05-10T12:15:23;17.30;99.90
9125;DHT22;4597;48.730;9.114;2023-05-10T12:17:50;17.30;99.90
9125;DHT22;4597;48.730;9.114;2023-05-10T12:20:23;17.60;99.90
9125;DHT22;4597;48.730;9.114;2023-05-10T12:22:56;17.70;99.90
9125;DHT22;4597;48.730;9.114;2023-05-10T12:25:23;17.50;99.90
9125;DHT22;4597;48.730;9.114;2023-05-10T12:27:54;17.50;99.90
9125;DHT22;4597;48.730;9.114;2023-05-10T12:30:27;17.30;99.90
9125;DHT22;4597;48.730;9.114;2023-05-10T12:32:54;17.20;99.20
9125;DHT22;4597;48.730;9.114;2023-05-10T12:35:24;17.30;98.80
9125;DHT22;4597;48.730;9.114;2023-05-10T12:37:53;17.20;99.10
9125;DHT22;4597;48.730;9.114;2023-05-10T12:40:18;17.10;99.80
9125;DHT22;4597;48.730;9.114;2023-05-10T12:42:44;17.00;99.90
9125;DHT22;4597;48.730;9.114;2023-05-10T12:45:11;17.10;99.90
9125;DHT22;4597;48.730;9.114;2023-05-10T12:47:37;17.10;99.90
9125;DHT22;4597;48.730;9.114;2023-05-10T12:50:03;17.10;99.90
9125;DHT22;4597;48.730;9.114;2023-05-10T12:52:29;17.20;99.90
9125;DHT22;4597;48.730;9.114;2023-05-10T12:54:54;17.30;99.90
9125;DHT22;4597;48.730;9.114;2023-05-10T12:57:21;17.40;99.90
9125;DHT22;4597;48.730;9.114;2023-05-10T12:59:47;17.70;99.40
9125;DHT22;4597;48.730;9.114;2023-05-10T13:02:12;17.60;97.70
9125;DHT22;4597;48.730;9.114;2023-05-10T13:04:40;17.60;99.20
9125;DHT22;4597;48.730;9.114;2023-05-10T13:07:08;17.70;97.40
9125;DHT22;4597;48.730;9.114;2023-05-10T13:09:34;17.70;99.60
9125;DHT22;4597;48.730;9.114;2023-05-10T13:12:00;17.90;97.10
9125;DHT22;4597;48.730;9.114;2023-05-10T13:14:26;18.10;96.30
9125;DHT22;4597;48.730;9.114;2023-05-10T13:16:51;18.20;96.20
9125;DHT22;4597;48.730;9.114;2023-05-10T13:19:17;18.10;96.80
9125;DHT22;4597;48.730;9.114;2023-05-10T13:21:43;18.20;96.50
9125;DHT22;4597;48.730;9.114;2023-05-10T13:24:10;18.20;96.20
9125;DHT22;4597;48.730;9.114;2023-05-10T13:26:36;18.10;96.90
9125;DHT22;4597;48.730;9.114;2023-05-10T13:29:02;18.10;97.10
9125;DHT22;4597;48.730;9.114;2023-05-10T13:31:28;18.20;97.30
9125;DHT22;4597;48.730;9.114;2023-05-10T13:33:54;18.30;97.70
9125;DHT22;4597;48.730;9.114;2023-05-10T13:36:19;18.40;97.50
9125;DHT22;4597;48.730;9.114;2023-05-10T13:38:45;18.50;95.80
9125;DHT22;4597;48.730;9.114;2023-05-10T13:41:10;18.60;96.30
9125;DHT22;4597;48.730;9.114;2023-05-10T13:43:36;18.70;97.20
9125;DHT22;4597;48.730;9.114;2023-05-10T13:46:02;18.80;95.60
9125;DHT22;4597;48.730;9.114;2023-05-10T13:48:28;18.80;93.90
9125;DHT22;4597;48.730;9.114;2023-05-10T13:50:53;18.70;91.80
9125;DHT22;4597;48.730;9.114;2023-05-10T13:53:19;18.70;91.10
9125;DHT22;4597;48.730;9.114;2023-05-10T13:55:44;18.90;91.60
9125;DHT22;4597;48.730;9.114;2023-05-10T13:58:10;18.80;88.80
9125;DHT22;4597;48.730;9.114;2023-05-10T14:00:36;19.00;90.80
9125;DHT22;4597;48.730;9.114;2023-05-10T14:03:01;19.10;88.60
9125;DHT22;4597;48.730;9.114;2023-05-10T14:05:27;19.10;88.50
9125;DHT22;4597;48.730;9.114;2023-05-10T14:07:53;19.10;86.90
9125;DHT22;4597;48.730;9.114;2023-05-10T14:10:18;19.20;85.20
9125;DHT22;4597;48.730;9.114;2023-05-10T14:12:44;19.20;86.00
9125;DHT22;4597;48.730;9.114;2023-05-10T14:15:10;19.00;84.70
9125;DHT22;4597;48.730;9.114;2023-05-10T14:17:36;19.00;86.10
9125;DHT22;4597;48.730;9.114;2023-05-10T14:20:02;19.10;85.20
9125;DHT22;4597;48.730;9.114;2023-05-10T14:22:29;19.20;91.60
9125;DHT22;4597;48.730;9.114;2023-05-10T14:24:54;19.40;87.30
9125;DHT22;4597;48.730;9.114;2023-05-10T14:27:20;19.30;86.10
9125;DHT22;4597;48.730;9.114;2023-05-10T14:29:47;19.30;85.90
9125;DHT22;4597;48.730;9.114;2023-05-10T14:32:12;19.30;85.80
9125;DHT22;4597;48.730;9.114;2023-05-10T14:34:38;19.40;85.30
9125;DHT22;4597;48.730;9.114;2023-05-10T14:37:04;19.70;86.70
9125;DHT22;4597;48.730;9.114;2023-05-10T14:39:30;19.50;82.50
9125;DHT22;4597;48.730;9.114;2023-05-10T14:41:56;19.30;84.00
9125;DHT22;4597;48.730;9.114;2023-05-10T14:44:21;19.20;81.50
9125;DHT22;4597;48.730;9.114;2023-05-10T14:46:47;19.40;81.50
9125;DHT22;4597;48.730;9.114;2023-05-10T14:49:13;19.40;82.30
9125;DHT22;4597;48.730;9.114;2023-05-10T14:51:39;19.50;83.60
9125;DHT22;4597;48.730;9.114;2023-05-10T14:54:04;19.50;80.80
9125;DHT22;4597;48.730;9.114;2023-05-10T14:56:30;19.30;78.20
9125;DHT22;4597;48.730;9.114;2023-05-10T14:58:55;19.30;80.10
9125;DHT22;4597;48.730;9.114;2023-05-10T15:01:21;19.50;77.60
9125;DHT22;4597;48.730;9.114;2023-05-10T15:03:47;19.70;74.30
9125;DHT22;4597;48.730;9.114;2023-05-10T15:06:14;19.70;74.70
9125;DHT22;4597;48.730;9.114;2023-05-10T15:08:40;19.90;73.10
9125;DHT22;4597;48.730;9.114;2023-05-10T15:11:05;20.10;74.20
9125;DHT22;4597;48.730;9.114;2023-05-10T15:13:31;20.50;73.70
9125;DHT22;4597;48.730;9.114;2023-05-10T15:15:56;20.80;72.20
9125;DHT22;4597;48.730;9.114;2023-05-10T15:18:22;21.00;70.00
9125;DHT22;4597;48.730;9.114;2023-05-10T15:20:47;20.60;67.80
9125;DHT22;4597;48.730;9.114;2023-05-10T15:23:12;20.70;69.00
9125;DHT22;4597;48.730;9.114;2023-05-10T15:25:38;20.70;69.10
9125;DHT22;4597;48.730;9.114;2023-05-10T15:28:05;20.50;67.70
9125;DHT22;4597;48.730;9.114;2023-05-10T15:30:30;20.50;68.30
9125;DHT22;4597;48.730;9.114;2023-05-10T15:32:56;20.50;66.90
9125;DHT22;4597;48.730;9.114;2023-05-10T15:35:21;20.40;66.80
9125;DHT22;4597;48.730;9.114;2023-05-10T15:37:48;20.50;67.80
9125;DHT22;4597;48.730;9.114;2023-05-10T15:40:14;20.40;68.50
9125;DHT22;4597;48.730;9.114;2023-05-10T15:42:40;20.30;66.10
9125;DHT22;4597;48.730;9.114;2023-05-10T15:45:06;20.10;68.40
9125;DHT22;4597;48.730;9.114;2023-05-10T15:47:32;20.00;70.30
9125;DHT22;4597;48.730;9.114;2023-05-10T15:49:58;20.00;68.40
9125;DHT22;4597;48.730;9.114;2023-05-10T15:52:23;20.00;67.30
9125;DHT22;4597;48.730;9.114;2023-05-10T15:54:49;20.00;67.70
9125;DHT22;4597;48.730;9.114;2023-05-10T15:57:15;20.10;67.80
9125;DHT22;4597;48.730;9.114;2023-05-10T15:59:41;19.90;68.00
9125;DHT22;4597;48.730;9.114;2023-05-10T16:02:08;19.90;69.40
9125;DHT22;4597;48.730;9.114;2023-05-10T16:04:35;19.90;68.90
9125;DHT22;4597;48.730;9.114;2023-05-10T16:07:01;20.00;68.50
9125;DHT22;4597;48.730;9.114;2023-05-10T16:09:26;20.20;70.00
9125;DHT22;4597;48.730;9.114;2023-05-10T16:11:52;20.60;68.00
9125;DHT22;4597;48.730;9.114;2023-05-10T16:14:17;20.90;66.60
9125;DHT22;4597;48.730;9.114;2023-05-10T16:16:45;21.40;65.50
9125;DHT22;4597;48.730;9.114;2023-05-10T16:19:11;21.10;64.00
9125;DHT22;4597;48.730;9.114;2023-05-10T16:21:37;20.70;64.40
9125;DHT22;4597;48.730;9.114;2023-05-10T16:24:02;20.30;65.50
9125;DHT22;4597;48.730;9.114;2023-05-10T16:26:29;19.60;66.90
9125;DHT22;4597;48.730;9.114;2023-05-10T16:28:54;19.20;70.80
9125;DHT22;4597;48.730;9.114;2023-05-10T16:31:20;18.90;73.00
9125;DHT22;4597;48.730;9.114;2023-05-10T16:33:45;18.70;72.60